Time;durP1;ratioP1;P1;durP2;ratioP2;P2;SDS_P1;SDS_P2;PMS_P1;PMS_P2;Temp;Humidity;BMP_temperature;BMP_pressure;BME280_temperature;BME280_humidity;BME280_pressure;Samples;Min_cycle;Max_cycle;Signal;HPM_P1;HPM_P2
2023/12/06 00:03:32;;;;;;;50.13;31.90;;;;;3.80;100594.00;;;;10078659;29;20247;-86
2023/12/06 00:08:34;;;;;;;46.83;30.33;;;;;3.90;100596.00;;;;10074384;29;20265;-87
2023/12/06 00:13:35;;;;;;;46.80;30.33;;;;;3.80;100607.00;;;;10084021;29;20297;-87
2023/12/06 00:18:36;;;;;;;45.13;29.37;;;;;3.80;100609.00;;;;10076235;29;20898;-85
2023/12/06 00:23:38;;;;;;;47.93;29.43;;;;;3.90;100612.00;;;;10082886;29;20243;-86
2023/12/06 00:28:39;;;;;;;52.27;31.93;;;;;3.90;100607.00;;;;10089322;29;20278;-86
2023/12/06 00:33:40;;;;;;;50.83;31.13;;;;;3.90;100624.00;;;;10075634;29;20722;-86
2023/12/06 00:38:41;;;;;;;48.33;29.63;;;;;3.90;100626.00;;;;10072188;29;20611;-87
2023/12/06 00:43:42;;;;;;;48.13;31.67;;;;;3.90;100631.00;;;;10073909;29;20770;-88
2023/12/06 00:48:44;;;;;;;52.20;31.20;;;;;4.00;100631.00;;;;10075175;29;20549;-87
2023/12/06 00:53:45;;;;;;;48.77;31.13;;;;;4.00;100628.00;;;;10080217;29;20228;-87
2023/12/06 00:58:46;;;;;;;51.37;29.87;;;;;4.00;100635.00;;;;10073300;29;20235;-87
2023/12/06 01:03:48;;;;;;;51.80;30.70;;;;;4.00;100645.00;;;;10089441;29;20326;-86
2023/12/06 01:08:49;;;;;;;48.13;28.57;;;;;4.10;100649.00;;;;10091975;29;20281;-87
2023/12/06 01:13:50;;;;;;;47.40;29.70;;;;;4.10;100652.00;;;;10101480;29;20781;-87
2023/12/06 01:18:51;;;;;;;49.70;29.47;;;;;4.10;100654.00;;;;10105083;29;20262;-86
2023/12/06 01:23:54;;;;;;;43.23;27.37;;;;;4.10;100653.00;;;;10091917;29;20244;-87
2023/12/06 01:28:55;;;;;;;49.33;28.50;;;;;4.10;100655.00;;;;10084012;29;20326;-77
2023/12/06 01:33:56;;;;;;;48.60;28.53;;;;;4.20;100665.00;;;;10055874;29;20258;-78
2023/12/06 01:38:58;;;;;;;52.97;31.57;;;;;4.20;100664.00;;;;10074504;29;20235;-77
2023/12/06 01:43:59;;;;;;;46.30;29.53;;;;;4.20;100670.00;;;;10083855;29;20238;-78
2023/12/06 01:49:02;;;;;;;49.37;31.57;;;;;4.20;100687.00;;;;10072083;29;20823;-79
2023/12/06 01:54:03;;;;;;;45.80;30.30;;;;;4.20;100692.00;;;;10085799;29;20231;-78
2023/12/06 01:59:07;;;;;;;41.70;29.23;;;;;4.20;100694.00;;;;10079440;29;20240;-78
2023/12/06 02:04:09;;;;;;;45.93;28.23;;;;;4.20;100697.00;;;;10056192;29;20330;-77
2023/12/06 02:09:12;;;;;;;47.87;28.80;;;;;4.20;100708.00;;;;10081768;29;20262;-77
2023/12/06 02:14:13;;;;;;;48.93;28.33;;;;;4.20;100712.00;;;;10060175;29;20267;-81
2023/12/06 02:19:24;;;;;;;43.97;28.30;;;;;4.20;100707.00;;;;10072053;29;20234;-76
2023/12/06 02:24:29;;;;;;;41.90;27.33;;;;;4.20;100716.00;;;;10089538;29;20219;-77
2023/12/06 02:29:30;;;;;;;51.23;30.43;;;;;4.20;100709.00;;;;10069004;29;20334;-76
2023/12/06 02:34:32;;;;;;;56.53;30.10;;;;;4.20;100711.00;;;;10084021;29;20658;-78
2023/12/06 02:39:40;;;;;;;47.00;28.83;;;;;4.30;100710.00;;;;10084424;29;20288;-82
2023/12/06 02:44:42;;;;;;;52.00;29.47;;;;;4.30;100709.00;;;;10068344;29;20231;-80
2023/12/06 02:49:43;;;;;;;53.90;29.67;;;;;4.30;100708.00;;;;10068052;29;20220;-80
2023/12/06 02:54:44;;;;;;;52.40;30.27;;;;;4.30;100711.00;;;;10088735;29;20222;-80
2023/12/06 02:59:45;;;;;;;46.33;29.03;;;;;4.20;100716.00;;;;10083894;29;20287;-83
2023/12/06 03:04:46;;;;;;;50.43;30.03;;;;;4.20;100721.00;;;;10085035;29;20281;-83
2023/12/06 03:09:48;;;;;;;49.47;28.07;;;;;4.20;100734.00;;;;10068493;29;20307;-79
2023/12/06 03:14:49;;;;;;;46.33;30.07;;;;;4.10;100732.00;;;;10050888;29;20302;-83
2023/12/06 03:19:51;;;;;;;49.20;30.03;;;;;4.10;100724.00;;;;10071742;29;20828;-81
2023/12/06 03:24:52;;;;;;;53.60;28.87;;;;;4.10;100725.00;;;;10086595;29;20230;-81
2023/12/06 03:29:53;;;;;;;50.33;28.53;;;;;4.10;100733.00;;;;10073259;29;20231;-83
2023/12/06 03:34:54;;;;;;;42.47;27.07;;;;;4.10;100732.00;;;;10057674;29;20305;-81
2023/12/06 03:39:55;;;;;;;46.23;28.57;;;;;4.00;100747.00;;;;10071134;29;21002;-81
2023/12/06 03:44:57;;;;;;;48.43;30.00;;;;;3.90;100747.00;;;;10059887;29;20227;-80
2023/12/06 03:49:58;;;;;;;40.43;26.20;;;;;3.90;100747.00;;;;10051189;29;20704;-80
2023/12/06 03:54:59;;;;;;;48.60;29.80;;;;;3.90;100763.00;;;;10052805;29;20334;-79
2023/12/06 04:00:01;;;;;;;47.80;28.93;;;;;3.90;100761.00;;;;10055539;29;20311;-79
2023/12/06 04:05:12;;;;;;;44.40;27.47;;;;;3.90;100761.00;;;;10068429;29;20243;-79
2023/12/06 04:10:14;;;;;;;45.83;25.80;;;;;3.90;100768.00;;;;10067997;29;20833;-79
2023/12/06 04:15:15;;;;;;;40.23;25.90;;;;;3.70;100767.00;;;;10054658;29;20700;-79
2023/12/06 04:20:17;;;;;;;41.80;26.30;;;;;3.60;100753.00;;;;10057220;29;20311;-79
2023/12/06 04:25:19;;;;;;;41.93;24.13;;;;;3.70;100755.00;;;;10053689;29;20230;-79
2023/12/06 04:30:20;;;;;;;43.47;26.00;;;;;3.70;100767.00;;;;10053901;29;20238;-79
2023/12/06 04:35:21;;;;;;;51.07;27.47;;;;;3.80;100775.00;;;;10067600;29;20236;-79
2023/12/06 04:40:22;;;;;;;49.27;26.67;;;;;3.90;100780.00;;;;10061162;29;20270;-80
2023/12/06 04:45:24;;;;;;;45.17;27.47;;;;;3.90;100795.00;;;;10080083;29;20231;-79
2023/12/06 04:50:25;;;;;;;44.60;24.73;;;;;4.00;100792.00;;;;10098954;29;20231;-80
2023/12/06 04:55:26;;;;;;;40.57;25.60;;;;;4.00;100796.00;;;;10068842;29;20861;-80
2023/12/06 05:00:28;;;;;;;44.17;23.73;;;;;4.10;100803.00;;;;10082727;29;20228;-81
2023/12/06 05:05:29;;;;;;;40.10;24.17;;;;;4.00;100799.00;;;;10064222;29;20638;-81
2023/12/06 05:10:30;;;;;;;43.97;24.50;;;;;4.10;100814.00;;;;10073310;29;20657;-81
2023/12/06 05:15:32;;;;;;;34.87;22.50;;;;;4.10;100805.00;;;;10068429;29;20238;-81
2023/12/06 05:20:33;;;;;;;35.17;19.73;;;;;4.10;100814.00;;;;10058456;29;20238;-81
2023/12/06 05:25:34;;;;;;;36.00;21.87;;;;;4.20;100823.00;;;;10055291;29;20367;-80
2023/12/06 05:30:35;;;;;;;37.97;20.47;;;;;4.30;100820.00;;;;10057364;29;20303;-80
2023/12/06 05:35:37;;;;;;;42.07;21.77;;;;;4.30;100827.00;;;;10050855;29;20247;-81
2023/12/06 05:40:38;;;;;;;34.23;20.57;;;;;4.30;100828.00;;;;10083506;29;20247;-81
2023/12/06 05:45:39;;;;;;;47.77;21.33;;;;;4.30;100832.00;;;;10059647;29;20226;-80
2023/12/06 05:50:41;;;;;;;40.20;21.30;;;;;4.30;100834.00;;;;10075810;29;20231;-82
2023/12/06 05:55:42;;;;;;;36.90;21.03;;;;;4.30;100847.00;;;;10065313;29;20310;-83
2023/12/06 06:00:43;;;;;;;36.83;19.93;;;;;4.30;100836.00;;;;10082030;29;20376;-83
2023/12/06 06:05:44;;;;;;;34.67;22.37;;;;;4.30;100848.00;;;;10079113;29;20742;-83
2023/12/06 06:10:46;;;;;;;37.57;20.17;;;;;4.20;100848.00;;;;10052853;29;20223;-81
2023/12/06 06:15:47;;;;;;;30.90;18.63;;;;;4.20;100845.00;;;;10052519;29;20223;-81
2023/12/06 06:20:48;;;;;;;36.40;19.00;;;;;4.20;100864.00;;;;10057689;29;20326;-84
2023/12/06 06:25:52;;;;;;;32.57;20.20;;;;;4.30;100870.00;;;;10068739;29;20322;-82
2023/12/06 06:30:53;;;;;;;39.27;19.67;;;;;4.30;100862.00;;;;10055317;29;20283;-83
2023/12/06 06:35:54;;;;;;;29.47;18.33;;;;;4.30;100866.00;;;;10079918;29;20242;-82
2023/12/06 06:40:56;;;;;;;33.33;18.17;;;;;4.20;100866.00;;;;10070266;29;20252;-83
2023/12/06 06:45:57;;;;;;;27.63;16.93;;;;;4.10;100866.00;;;;10056253;29;20224;-83
2023/12/06 06:50:58;;;;;;;35.63;18.30;;;;;4.10;100881.00;;;;10086003;29;20741;-84
2023/12/06 06:56:01;;;;;;;25.00;16.70;;;;;4.00;100891.00;;;;10071979;29;20239;-82
2023/12/06 07:01:03;;;;;;;34.43;17.87;;;;;3.90;100879.00;;;;10073183;29;20331;-82
2023/12/06 07:06:04;;;;;;;31.17;18.03;;;;;3.90;100893.00;;;;10072379;29;20245;-82
2023/12/06 07:11:07;;;;;;;29.97;17.67;;;;;3.90;100903.00;;;;10054568;29;20287;-82
2023/12/06 07:16:10;;;;;;;31.50;17.57;;;;;3.80;100908.00;;;;10092557;29;20314;-87
2023/12/06 07:21:11;;;;;;;30.30;16.83;;;;;3.80;100920.00;;;;10061436;29;20227;-87
2023/12/06 07:26:13;;;;;;;31.43;16.70;;;;;3.80;100921.00;;;;10067243;29;20247;-88
2023/12/06 07:31:14;;;;;;;31.83;15.20;;;;;3.60;100925.00;;;;10085190;29;20235;-86
2023/12/06 07:36:15;;;;;;;26.27;15.80;;;;;3.50;100930.00;;;;10086649;29;20282;-87
2023/12/06 07:41:16;;;;;;;24.20;14.60;;;;;3.40;100928.00;;;;10092757;29;20240;-87
2023/12/06 07:46:17;;;;;;;24.57;15.40;;;;;3.40;100936.00;;;;10090761;29;20227;-88
2023/12/06 07:51:19;;;;;;;27.10;15.87;;;;;3.50;100941.00;;;;10083563;29;20235;-87
2023/12/06 07:56:20;;;;;;;29.43;15.07;;;;;3.50;100951.00;;;;10087777;29;20258;-88
2023/12/06 08:01:21;;;;;;;31.27;16.43;;;;;3.60;100950.00;;;;10072693;29;20259;-86
2023/12/06 08:06:23;;;;;;;28.47;15.70;;;;;3.60;100950.00;;;;10059267;29;20246;-88
2023/12/06 08:11:25;;;;;;;25.83;16.20;;;;;3.70;100955.00;;;;10112821;29;20231;-88
2023/12/06 08:16:27;;;;;;;29.60;16.53;;;;;3.60;100957.00;;;;10092055;29;20291;-87
2023/12/06 08:21:29;;;;;;;25.77;15.90;;;;;3.50;100951.00;;;;10073081;29;20262;-88
2023/12/06 08:26:30;;;;;;;30.47;16.83;;;;;3.30;100962.00;;;;10106188;29;20273;-84
2023/12/06 08:31:31;;;;;;;29.27;16.17;;;;;3.30;100969.00;;;;10081453;29;20259;-83
2023/12/06 08:36:32;;;;;;;29.30;16.83;;;;;3.60;100980.00;;;;10050937;29;20236;-83
2023/12/06 08:41:34;;;;;;;39.83;21.03;;;;;4.10;100983.00;;;;10048077;29;20969;-83
2023/12/06 08:46:35;;;;;;;52.77;23.00;;;;;4.60;100994.00;;;;10054521;29;20322;-84
2023/12/06 08:51:37;;;;;;;35.47;20.27;;;;;4.70;100996.00;;;;10067822;29;20698;-83
2023/12/06 08:56:38;;;;;;;40.73;20.10;;;;;4.80;100998.00;;;;10057876;29;20586;-84
2023/12/06 09:01:39;;;;;;;30.27;18.87;;;;;5.00;100996.00;;;;10048613;29;20240;-84
2023/12/06 09:06:41;;;;;;;35.27;18.20;;;;;5.10;100990.00;;;;10067371;29;20668;-82
2023/12/06 09:11:43;;;;;;;37.17;19.23;;;;;5.60;100989.00;;;;10066257;29;20224;-83
2023/12/06 09:16:45;;;;;;;32.23;17.70;;;;;5.90;100993.00;;;;10082968;29;20247;-83
2023/12/06 09:21:47;;;;;;;25.50;14.30;;;;;5.90;101011.00;;;;10061813;29;20664;-84
2023/12/06 09:26:48;;;;;;;22.50;14.13;;;;;5.90;101005.00;;;;10077927;29;20232;-84
2023/12/06 09:31:50;;;;;;;24.87;13.73;;;;;5.90;101014.00;;;;10075992;29;20235;-84
2023/12/06 09:36:51;;;;;;;22.57;13.47;;;;;5.80;101011.00;;;;10079345;29;20238;-88
2023/12/06 09:41:52;;;;;;;22.77;12.43;;;;;5.80;101033.00;;;;10109920;29;20243;-88
2023/12/06 09:46:54;;;;;;;23.97;13.57;;;;;5.80;101034.00;;;;10121715;29;20227;-89
2023/12/06 09:52:03;;;;;;;21.73;13.33;;;;;6.00;101043.00;;;;10116831;29;20226;-88
2023/12/06 09:57:04;;;;;;;21.23;12.57;;;;;6.30;101047.00;;;;10104609;29;20279;-89
2023/12/06 10:02:06;;;;;;;19.27;12.33;;;;;6.50;101057.00;;;;10114769;29;21172;-89
2023/12/06 10:07:08;;;;;;;19.63;11.10;;;;;6.80;101067.00;;;;10091779;29;20231;-89
2023/12/06 10:12:10;;;;;;;17.47;10.10;;;;;6.90;101050.00;;;;10099223;29;20232;-90
2023/12/06 10:17:12;;;;;;;17.30;10.70;;;;;6.60;101062.00;;;;10100087;29;20223;-89
2023/12/06 10:22:13;;;;;;;20.77;9.27;;;;;6.70;101057.00;;;;10093110;29;20232;-87
2023/12/06 10:27:15;;;;;;;21.77;11.20;;;;;7.30;101067.00;;;;10132811;29;20339;-89
2023/12/06 10:32:17;;;;;;;17.33;9.27;;;;;7.20;101075.00;;;;10117483;29;20275;-88
2023/12/06 10:37:21;;;;;;;14.00;8.77;;;;;7.10;101065.00;;;;10080719;29;20271;-90
2023/12/06 10:42:31;;;;;;;14.23;7.93;;;;;7.20;101068.00;;;;10090948;29;20291;-90
2023/12/06 10:47:34;;;;;;;14.33;8.63;;;;;7.50;101072.00;;;;10072813;29;20234;-79
2023/12/06 10:52:36;;;;;;;19.30;9.30;;;;;7.60;101076.00;;;;10060290;29;20234;-79
2023/12/06 10:57:40;;;;;;;18.00;11.00;;;;;7.60;101079.00;;;;10073916;29;20240;-79
2023/12/06 11:02:42;;;;;;;18.37;11.77;;;;;7.50;101076.00;;;;10069704;29;20367;-78
2023/12/06 11:08:04;;;;;;;21.17;11.73;;;;;7.50;101081.00;;;;10073497;29;20232;-79
2023/12/06 11:13:28;;;;;;;14.90;11.37;;;;;7.50;101082.00;;;;10069732;29;21081;-79
2023/12/06 11:18:49;;;;;;;19.10;11.77;;;;;7.50;101086.00;;;;10060285;29;20651;-78
2023/12/06 11:23:51;;;;;;;22.53;12.30;;;;;7.90;101092.00;;;;10068366;29;20305;-79
2023/12/06 11:28:54;;;;;;;16.17;11.63;;;;;7.60;101085.00;;;;10060920;29;20586;-79
2023/12/06 11:34:11;;;;;;;16.23;10.50;;;;;7.60;101080.00;;;;10075738;29;20231;-79
2023/12/06 11:39:14;;;;;;;15.13;10.93;;;;;7.60;101081.00;;;;10071924;29;20780;-79
2023/12/06 11:44:16;;;;;;;18.33;11.93;;;;;7.60;101086.00;;;;10073862;29;20232;-79
2023/12/06 11:49:20;;;;;;;18.07;10.83;;;;;7.50;101074.00;;;;10059876;29;20227;-79
2023/12/06 11:54:22;;;;;;;15.20;10.10;;;;;7.30;101081.00;;;;10081820;29;20322;-79
2023/12/06 11:59:24;;;;;;;16.97;11.23;;;;;7.20;101072.00;;;;10063643;29;20290;-79
2023/12/06 12:04:26;;;;;;;16.63;10.67;;;;;7.30;101066.00;;;;10087175;29;20293;-79
2023/12/06 12:09:32;;;;;;;17.53;10.83;;;;;7.30;101064.00;;;;10055657;29;20227;-79
2023/12/06 12:14:37;;;;;;;16.73;10.63;;;;;7.40;101066.00;;;;10053950;29;20238;-78
2023/12/06 12:19:42;;;;;;;22.07;11.50;;;;;7.50;101078.00;;;;10072074;29;20927;-81
2023/12/06 12:24:44;;;;;;;16.33;10.80;;;;;7.50;101075.00;;;;10066549;29;20298;-78
2023/12/06 12:29:45;;;;;;;15.87;10.17;;;;;7.40;101099.00;;;;10050977;29;20224;-78
2023/12/06 12:34:46;;;;;;;15.80;8.83;;;;;7.20;101086.00;;;;10079571;29;20282;-83
2023/12/06 12:39:48;;;;;;;14.40;7.93;;;;;7.00;101091.00;;;;10067842;29;20226;-82
2023/12/06 12:44:50;;;;;;;14.27;8.37;;;;;6.80;101090.00;;;;10046688;29;20226;-80
2023/12/06 12:49:51;;;;;;;15.30;8.37;;;;;6.70;101087.00;;;;10079112;29;20227;-79
2023/12/06 12:54:55;;;;;;;14.93;8.63;;;;;6.60;101101.00;;;;10077036;29;20322;-80
2023/12/06 12:59:57;;;;;;;13.00;8.90;;;;;6.60;101090.00;;;;10059395;29;20776;-80
2023/12/06 13:04:58;;;;;;;12.63;8.27;;;;;6.70;101077.00;;;;10082866;29;20242;-79
2023/12/06 13:09:59;;;;;;;12.40;7.40;;;;;6.80;101088.00;;;;10090821;29;20227;-79
2023/12/06 13:15:01;;;;;;;16.17;8.37;;;;;6.80;101085.00;;;;10070697;29;20220;-79
2023/12/06 13:20:08;;;;;;;11.97;7.40;;;;;6.80;101088.00;;;;10062197;29;20264;-79
2023/12/06 13:25:09;;;;;;;11.90;7.50;;;;;6.70;101091.00;;;;10078429;29;20216;-79
2023/12/06 13:30:11;;;;;;;17.07;8.13;;;;;6.80;101086.00;;;;10074596;29;20254;-79
2023/12/06 13:35:13;;;;;;;13.67;8.37;;;;;6.80;101101.00;;;;10105373;29;20234;-79
2023/12/06 13:40:27;;;;;;;18.40;9.07;;;;;6.70;101107.00;;;;10072847;29;20232;-79
2023/12/06 13:45:28;;;;;;;15.77;9.67;;;;;6.50;101112.00;;;;10053768;29;20242;-79
2023/12/06 13:50:30;;;;;;;17.00;9.37;;;;;6.30;101125.00;;;;10083904;29;20667;-79
2023/12/06 13:55:31;;;;;;;14.87;9.50;;;;;6.20;101120.00;;;;10104844;29;20219;-80
2023/12/06 14:00:34;;;;;;;8.10;6.17;;;;;6.00;101126.00;;;;10074496;29;20220;-79
2023/12/06 14:05:36;;;;;;;6.27;4.43;;;;;5.90;101123.00;;;;10060008;29;20235;-79
2023/12/06 14:10:37;;;;;;;10.83;4.47;;;;;5.80;101134.00;;;;10070767;29;20232;-79
2023/12/06 14:15:39;;;;;;;6.70;2.97;;;;;5.90;101133.00;;;;10072897;29;20315;-80
2023/12/06 14:20:40;;;;;;;7.27;3.03;;;;;6.00;101135.00;;;;10078428;29;20827;-85
2023/12/06 14:25:42;;;;;;;3.80;3.13;;;;;6.20;101130.00;;;;10082250;29;20973;-85
2023/12/06 14:30:44;;;;;;;3.77;2.80;;;;;6.20;101126.00;;;;10082430;29;20734;-84
2023/12/06 14:35:45;;;;;;;4.87;3.03;;;;;6.00;101126.00;;;;10068279;29;20534;-85
2023/12/06 14:40:47;;;;;;;3.00;2.70;;;;;5.80;101131.00;;;;10085997;29;20254;-86
2023/12/06 14:45:57;;;;;;;5.43;3.20;;;;;5.70;101129.00;;;;10070377;29;20318;-85
2023/12/06 14:50:58;;;;;;;6.27;3.37;;;;;5.40;101135.00;;;;10069972;29;20228;-84
2023/12/06 14:55:59;;;;;;;7.53;3.43;;;;;5.10;101138.00;;;;10095948;29;20223;-85
2023/12/06 15:01:01;;;;;;;5.40;3.17;;;;;4.90;101146.00;;;;10069286;29;20235;-84
2023/12/06 15:06:05;;;;;;;6.23;3.53;;;;;4.70;101154.00;;;;10109225;29;20238;-84
2023/12/06 15:11:06;;;;;;;5.30;3.57;;;;;4.60;101167.00;;;;10074157;29;20326;-84
2023/12/06 15:16:07;;;;;;;6.33;4.10;;;;;4.60;101175.00;;;;10091312;29;20224;-84
2023/12/06 15:21:08;;;;;;;7.60;5.07;;;;;4.60;101178.00;;;;10093917;29;20243;-85
2023/12/06 15:26:12;;;;;;;10.73;5.23;;;;;4.60;101187.00;;;;10074133;29;20238;-80
2023/12/06 15:31:14;;;;;;;9.03;6.73;;;;;4.40;101205.00;;;;10066569;29;20355;-80
2023/12/06 15:36:15;;;;;;;11.73;7.40;;;;;4.40;101204.00;;;;10052187;29;20223;-79
2023/12/06 15:41:16;;;;;;;10.33;7.50;;;;;4.40;101200.00;;;;10075461;29;20231;-79
2023/12/06 15:46:34;;;;;;;10.10;7.03;;;;;4.30;101209.00;;;;10088150;29;20227;-80
2023/12/06 15:51:36;;;;;;;11.27;6.83;;;;;4.30;101210.00;;;;10071665;29;20241;-79
2023/12/06 15:56:44;;;;;;;12.20;8.73;;;;;4.30;101213.00;;;;10101054;29;20251;-80
2023/12/06 16:01:45;;;;;;;10.97;7.60;;;;;4.40;101230.00;;;;10085665;29;20245;-80
2023/12/06 16:06:47;;;;;;;11.80;8.27;;;;;4.50;101240.00;;;;10100910;29;20258;-79
2023/12/06 16:11:48;;;;;;;8.37;7.10;;;;;4.60;101236.00;;;;10084295;29;20259;-80
2023/12/06 16:16:50;;;;;;;6.57;3.40;;;;;4.40;101247.00;;;;10079000;29;20306;-80
2023/12/06 16:21:51;;;;;;;3.37;2.90;;;;;4.30;101256.00;;;;10068506;29;20261;-80
2023/12/06 16:27:03;;;;;;;5.67;3.63;;;;;4.20;101253.00;;;;10055283;29;20237;-79
2023/12/06 16:32:06;;;;;;;4.97;4.37;;;;;4.20;101245.00;;;;10082926;29;20235;-79
2023/12/06 16:37:07;;;;;;;7.83;5.20;;;;;4.20;101256.00;;;;10053762;29;20306;-80
2023/12/06 16:42:08;;;;;;;7.43;5.47;;;;;4.30;101254.00;;;;10062709;29;20311;-79
2023/12/06 16:47:09;;;;;;;9.83;7.40;;;;;4.20;101261.00;;;;10050669;29;20227;-79
2023/12/06 16:52:13;;;;;;;8.77;6.17;;;;;4.20;101255.00;;;;10047421;29;20228;-79
2023/12/06 16:57:15;;;;;;;9.07;5.87;;;;;4.20;101273.00;;;;10088086;29;20231;-80
2023/12/06 17:02:16;;;;;;;9.23;5.93;;;;;4.10;101271.00;;;;10064618;29;20769;-81
2023/12/06 17:07:17;;;;;;;9.30;5.47;;;;;4.10;101272.00;;;;10086707;29;20270;-80
2023/12/06 17:12:20;;;;;;;12.33;7.10;;;;;4.10;101269.00;;;;10052949;29;20752;-80
2023/12/06 17:17:21;;;;;;;12.27;7.30;;;;;4.00;101273.00;;;;10068030;29;20264;-79
2023/12/06 17:22:25;;;;;;;11.50;7.67;;;;;3.80;101269.00;;;;10058867;29;20227;-80
2023/12/06 17:27:27;;;;;;;11.43;7.47;;;;;3.60;101272.00;;;;10073794;29;20224;-80
2023/12/06 17:32:28;;;;;;;11.83;6.43;;;;;3.60;101279.00;;;;10056374;29;20227;-80
2023/12/06 17:37:31;;;;;;;9.83;6.97;;;;;3.60;101285.00;;;;10086595;29;20230;-80
2023/12/06 17:42:32;;;;;;;13.00;7.87;;;;;3.60;101293.00;;;;10077550;29;20262;-80
2023/12/06 17:47:33;;;;;;;19.70;8.33;;;;;3.50;101290.00;;;;10359807;24;20237;-84
2023/12/06 19:00:20;;;;;;;23.67;14.30;;;;;2.60;101314.00;;;;10229279;23;20691;-80
2023/12/06 19:05:25;;;;;;;20.97;14.20;;;;;2.50;101315.00;;;;10076089;29;20253;-80
2023/12/06 19:10:26;;;;;;;21.40;14.37;;;;;2.40;101322.00;;;;10080156;29;20223;-80
2023/12/06 19:15:28;;;;;;;19.40;12.13;;;;;2.30;101328.00;;;;10083614;29;21145;-81
2023/12/06 19:20:29;;;;;;;21.80;13.27;;;;;2.30;101333.00;;;;10086538;29;20267;-80
2023/12/06 19:25:31;;;;;;;22.30;14.17;;;;;2.30;101325.00;;;;10053787;29;20258;-80
2023/12/06 19:30:32;;;;;;;22.67;13.83;;;;;2.20;101342.00;;;;10039631;29;20304;-80
2023/12/06 19:35:34;;;;;;;26.00;15.07;;;;;2.20;101344.00;;;;10043054;29;20244;-80
2023/12/06 19:40:35;;;;;;;22.80;15.97;;;;;2.10;101344.00;;;;10045846;29;20326;-80
2023/12/06 19:45:37;;;;;;;23.97;13.70;;;;;1.90;101367.00;;;;10061901;29;20855;-80
2023/12/06 19:50:38;;;;;;;25.70;16.00;;;;;1.90;101368.00;;;;10052713;29;20265;-80
2023/12/06 19:55:39;;;;;;;23.07;14.90;;;;;1.80;101363.00;;;;10037366;29;20280;-80
2023/12/06 20:00:40;;;;;;;31.47;17.43;;;;;1.80;101368.00;;;;10045328;29;20975;-80
2023/12/06 20:05:44;;;;;;;23.73;15.80;;;;;1.80;101371.00;;;;10061148;29;20297;-80
2023/12/06 20:10:45;;;;;;;28.60;17.03;;;;;1.90;101368.00;;;;10038951;29;20263;-80
2023/12/06 20:15:46;;;;;;;37.30;18.87;;;;;2.00;101363.00;;;;10052053;29;20310;-80
2023/12/06 20:20:48;;;;;;;30.27;17.57;;;;;2.00;101364.00;;;;10017757;29;20235;-81
2023/12/06 20:25:49;;;;;;;32.93;17.33;;;;;2.00;101365.00;;;;10059841;29;20240;-80
2023/12/06 20:30:54;;;;;;;36.73;18.90;;;;;2.00;101377.00;;;;10066320;29;20264;-80
2023/12/06 20:35:55;;;;;;;37.17;20.43;;;;;2.00;101367.00;;;;10060550;29;20232;-80
2023/12/06 20:40:57;;;;;;;33.80;19.03;;;;;1.90;101376.00;;;;10062262;29;20236;-80
2023/12/06 20:45:58;;;;;;;36.33;21.57;;;;;1.90;101379.00;;;;10051252;29;20233;-81
2023/12/06 20:51:00;;;;;;;38.60;20.77;;;;;1.90;101381.00;;;;10035815;29;20259;-80
2023/12/06 20:56:02;;;;;;;34.10;21.13;;;;;1.90;101385.00;;;;10034687;29;20245;-80
2023/12/06 21:01:03;;;;;;;36.43;21.57;;;;;1.90;101380.00;;;;10039547;29;20240;-81
2023/12/06 21:06:09;;;;;;;36.43;19.93;;;;;1.80;101392.00;;;;10060058;29;20242;-80
2023/12/06 21:11:10;;;;;;;37.23;20.70;;;;;1.70;101392.00;;;;10040926;29;20259;-81
2023/12/06 21:16:12;;;;;;;35.97;20.63;;;;;1.70;101390.00;;;;10018261;29;20232;-81
2023/12/06 21:21:13;;;;;;;41.47;21.20;;;;;1.60;101405.00;;;;10060389;29;20259;-80
2023/12/06 21:26:15;;;;;;;45.57;22.13;;;;;1.50;101396.00;;;;10054365;29;21031;-80
2023/12/06 21:31:16;;;;;;;43.73;20.57;;;;;1.60;101408.00;;;;10046542;29;20622;-80
2023/12/06 21:36:19;;;;;;;58.73;22.87;;;;;1.70;101414.00;;;;10059614;29;20331;-80
2023/12/06 21:41:20;;;;;;;47.30;22.40;;;;;1.90;101415.00;;;;10032210;29;20233;-80
2023/12/06 21:46:22;;;;;;;40.13;20.73;;;;;2.00;101422.00;;;;10023058;29;20316;-81
2023/12/06 21:51:23;;;;;;;55.00;24.03;;;;;2.10;101427.00;;;;10055380;29;20251;-80
2023/12/06 21:56:24;;;;;;;45.77;21.80;;;;;2.10;101440.00;;;;10037791;29;20220;-80
2023/12/06 22:01:25;;;;;;;55.63;23.23;;;;;2.20;101441.00;;;;10074052;29;20306;-81
2023/12/06 22:06:27;;;;;;;49.97;23.27;;;;;2.20;101432.00;;;;10026346;29;20335;-80
2023/12/06 22:11:28;;;;;;;55.10;22.30;;;;;2.30;101438.00;;;;10062197;29;21168;-80
2023/12/06 22:16:29;;;;;;;57.00;23.33;;;;;2.30;101431.00;;;;10049769;29;20284;-80
2023/12/06 22:21:31;;;;;;;58.77;23.53;;;;;2.30;101438.00;;;;10034268;29;20260;-80
2023/12/06 22:26:32;;;;;;;57.07;21.97;;;;;2.30;101449.00;;;;10071461;29;20266;-86
2023/12/06 22:31:33;;;;;;;58.33;24.00;;;;;2.30;101444.00;;;;10043194;29;20259;-86
2023/12/06 22:36:35;;;;;;;50.20;22.80;;;;;2.30;101439.00;;;;10049530;29;20864;-86
2023/12/06 22:41:36;;;;;;;58.40;22.77;;;;;2.40;101436.00;;;;10035415;29;20252;-85
2023/12/06 22:46:41;;;;;;;59.80;26.70;;;;;2.40;101440.00;;;;10057020;29;20260;-86
2023/12/06 22:51:43;;;;;;;56.27;24.00;;;;;2.40;101442.00;;;;10049613;29;20256;-86
2023/12/06 22:56:44;;;;;;;62.70;22.57;;;;;2.40;101436.00;;;;10048144;29;20260;-86
2023/12/06 23:01:46;;;;;;;62.23;25.17;;;;;2.40;101449.00;;;;10035745;29;20230;-87
2023/12/06 23:06:47;;;;;;;52.57;22.73;;;;;2.40;101454.00;;;;10028999;29;20273;-85
2023/12/06 23:11:48;;;;;;;59.77;21.80;;;;;2.40;101459.00;;;;10026714;29;20278;-86
2023/12/06 23:16:49;;;;;;;54.73;22.50;;;;;2.40;101460.00;;;;10043168;29;20316;-86
2023/12/06 23:21:50;;;;;;;50.40;20.47;;;;;2.40;101442.00;;;;10039894;29;20243;-87
2023/12/06 23:26:52;;;;;;;61.03;23.47;;;;;2.40;101458.00;;;;10048213;29;20231;-86
2023/12/06 23:31:53;;;;;;;55.23;21.60;;;;;2.40;101470.00;;;;10037994;29;20883;-87
2023/12/06 23:36:54;;;;;;;52.30;20.13;;;;;2.40;101471.00;;;;10034848;29;20253;-80
2023/12/06 23:41:55;;;;;;;54.33;20.10;;;;;2.40;101469.00;;;;10034895;29;20244;-79
2023/12/06 23:46:56;;;;;;;57.50;20.53;;;;;2.30;101469.00;;;;10041726;29;20232;-79
2023/12/06 23:51:58;;;;;;;58.70;20.90;;;;;2.40;101463.00;;;;10050635;29;20986;-79
2023/12/06 23:56:59;;;;;;;72.40;21.23;;;;;2.40;101460.00;;;;10055333;29;20223;-79
